Time;durP1;ratioP1;P1;durP2;ratioP2;P2;SDS_P1;SDS_P2;PMS_P1;PMS_P2;Temp;Humidity;BMP_temperature;BMP_pressure;BME280_temperature;BME280_humidity;BME280_pressure;Samples;Min_cycle;Max_cycle;Signal;HPM_P1;HPM_P2
2021/07/16 00:01:55;;;;;;;21.77;7.63;;;16.80;92.10;;;;;;5111727;28;20114;-68
2021/07/16 00:04:22;;;;;;;22.07;7.47;;;16.80;92.10;;;;;;5112303;28;20398;-68
2021/07/16 00:06:48;;;;;;;20.07;7.47;;;16.80;92.10;;;;;;5112250;28;20051;-68
2021/07/16 00:09:14;;;;;;;21.80;7.60;;;16.80;92.10;;;;;;5111454;28;20044;-67
2021/07/16 00:11:39;;;;;;;21.27;7.27;;;16.80;92.00;;;;;;5112570;28;20052;-67
2021/07/16 00:14:05;;;;;;;22.73;7.30;;;16.80;92.00;;;;;;5112490;28;20472;-68
2021/07/16 00:16:32;;;;;;;24.80;6.80;;;16.70;91.90;;;;;;5111235;28;20127;-68
2021/07/16 00:18:58;;;;;;;21.02;6.97;;;16.70;92.00;;;;;;5076425;28;1022773;-68
2021/07/16 00:21:24;;;;;;;20.33;8.10;;;16.70;91.90;;;;;;5113306;28;20133;-67
2021/07/16 00:23:50;;;;;;;15.53;6.57;;;16.70;91.90;;;;;;5112638;28;20491;-68
2021/07/16 00:26:16;;;;;;;24.13;9.13;;;16.70;91.90;;;;;;5112996;28;20084;-69
2021/07/16 00:28:42;;;;;;;20.87;7.47;;;16.70;91.90;;;;;;5113384;28;20116;-68
2021/07/16 00:31:08;;;;;;;17.57;6.60;;;16.70;92.00;;;;;;5112149;28;20067;-67
2021/07/16 00:33:34;;;;;;;21.67;7.10;;;16.70;92.00;;;;;;5113518;28;20094;-67
2021/07/16 00:36:00;;;;;;;22.10;7.80;;;16.80;91.90;;;;;;5113224;28;20191;-67
2021/07/16 00:38:26;;;;;;;20.93;7.20;;;16.70;91.90;;;;;;5112202;28;20127;-68
2021/07/16 00:40:52;;;;;;;19.63;6.30;;;16.80;91.90;;;;;;5113060;28;20416;-68
2021/07/16 00:43:17;;;;;;;24.10;7.20;;;16.80;91.90;;;;;;5111558;28;20051;-68
2021/07/16 00:45:43;;;;;;;25.40;7.87;;;16.70;91.80;;;;;;5112370;28;20055;-68
2021/07/16 00:48:08;;;;;;;21.37;6.37;;;16.70;91.70;;;;;;5112611;28;20055;-67
2021/07/16 00:50:37;;;;;;;22.80;6.60;;;16.70;91.80;;;;;;5112286;28;20408;-68
2021/07/16 00:53:05;;;;;;;21.70;7.20;;;16.70;91.70;;;;;;5112656;28;20131;-67
2021/07/16 00:55:32;;;;;;;24.30;6.60;;;16.70;91.70;;;;;;5112670;28;20393;-68
2021/07/16 00:57:58;;;;;;;19.57;6.20;;;16.70;91.80;;;;;;5111870;28;20135;-67
2021/07/16 01:00:24;;;;;;;24.13;6.20;;;16.60;91.80;;;;;;5112363;28;20051;-67
2021/07/16 01:02:51;;;;;;;21.47;6.27;;;16.60;91.80;;;;;;5112737;28;20103;-68
2021/07/16 01:05:19;;;;;;;21.67;6.23;;;16.60;91.90;;;;;;5111312;28;20510;-68
2021/07/16 01:07:47;;;;;;;21.00;6.67;;;16.60;91.80;;;;;;5112218;28;20043;-67
2021/07/16 01:10:14;;;;;;;19.83;6.23;;;16.60;91.80;;;;;;5111733;28;20490;-67
2021/07/16 01:12:42;;;;;;;25.20;7.23;;;16.50;91.80;;;;;;5111284;28;20508;-67
2021/07/16 01:15:10;;;;;;;23.57;6.50;;;16.60;91.80;;;;;;5111912;28;20047;-68
2021/07/16 01:17:36;;;;;;;17.67;5.97;;;16.60;91.90;;;;;;5112278;28;20047;-67
2021/07/16 01:20:06;;;;;;;17.37;4.97;;;16.60;91.80;;;;;;5111046;28;20522;-68
2021/07/16 01:22:36;;;;;;;19.93;5.70;;;16.50;91.80;;;;;;5111986;28;20051;-68
2021/07/16 01:25:06;;;;;;;23.13;6.25;;;16.60;91.80;;;;;;5111973;28;20135;-68
2021/07/16 01:27:32;;;;;;;18.97;6.37;;;16.50;91.80;;;;;;5110938;28;20514;-68
2021/07/16 01:30:00;;;;;;;25.17;6.27;;;16.60;91.80;;;;;;5112054;28;20047;-68
2021/07/16 01:32:27;;;;;;;22.03;5.77;;;16.60;91.80;;;;;;5110926;28;20122;-68
2021/07/16 01:34:53;;;;;;;24.53;6.30;;;16.60;91.80;;;;;;5111968;28;20097;-67
2021/07/16 01:37:20;;;;;;;21.27;4.77;;;16.60;91.70;;;;;;5111583;28;20055;-68
2021/07/16 01:39:46;;;;;;;21.10;4.83;;;16.50;91.70;;;;;;5110938;28;20067;-68
2021/07/16 01:42:13;;;;;;;27.30;6.00;;;16.50;91.60;;;;;;5111173;28;20055;-68
2021/07/16 01:44:40;;;;;;;23.97;5.97;;;16.50;91.50;;;;;;5111523;28;20079;-67
2021/07/16 01:47:06;;;;;;;23.87;6.17;;;16.50;91.50;;;;;;5110862;28;20085;-68
2021/07/16 01:49:36;;;;;;;20.60;5.40;;;16.50;91.50;;;;;;5111257;28;20047;-68
2021/07/16 01:52:03;;;;;;;17.67;4.93;;;16.60;91.50;;;;;;5111473;28;20119;-68
2021/07/16 01:54:29;;;;;;;23.17;5.33;;;16.50;91.90;;;;;;5110426;28;20112;-68
2021/07/16 01:56:54;;;;;;;19.80;5.63;;;16.50;91.50;;;;;;5111545;28;20051;-68
2021/07/16 01:59:20;;;;;;;24.67;5.70;;;16.50;91.50;;;;;;5111161;28;20418;-68
2021/07/16 02:01:46;;;;;;;18.70;5.23;;;16.60;91.50;;;;;;5110774;28;20063;-68
2021/07/16 02:04:11;;;;;;;16.13;4.63;;;16.50;91.50;;;;;;5111073;28;20043;-68
2021/07/16 02:06:38;;;;;;;15.83;5.23;;;16.60;91.60;;;;;;5111215;28;20376;-67
2021/07/16 02:09:08;;;;;;;23.27;5.57;;;16.60;91.50;;;;;;5110380;28;20055;-68
2021/07/16 02:11:34;;;;;;;22.67;5.40;;;16.50;91.60;;;;;;5111297;28;20170;-67
2021/07/16 02:14:00;;;;;;;20.53;5.97;;;16.50;91.70;;;;;;5111113;28;20425;-67
2021/07/16 02:16:27;;;;;;;26.47;4.67;;;16.50;91.60;;;;;;5109991;28;20534;-67
2021/07/16 02:18:54;;;;;;;26.33;6.07;;;16.60;91.70;;;;;;5111151;28;20112;-67
2021/07/16 02:21:21;;;;;;;22.17;5.83;;;16.60;91.60;;;;;;5110760;28;20054;-68
2021/07/16 02:23:47;;;;;;;25.63;6.10;;;16.50;91.60;;;;;;5110474;28;20093;-68
2021/07/16 02:26:13;;;;;;;22.03;5.23;;;16.50;91.60;;;;;;5110994;28;20065;-68
2021/07/16 02:28:39;;;;;;;23.53;5.70;;;16.50;91.60;;;;;;5110524;28;20156;-68
2021/07/16 02:31:11;;;;;;;19.43;6.03;;;16.50;91.60;;;;;;5111095;28;20200;-67
2021/07/16 02:33:37;;;;;;;22.00;5.80;;;16.50;91.60;;;;;;5111100;28;20111;-68
2021/07/16 02:36:04;;;;;;;15.70;4.33;;;16.50;91.60;;;;;;5110014;28;20043;-67
2021/07/16 02:38:30;;;;;;;24.97;6.27;;;16.50;91.60;;;;;;5111122;28;20071;-67
2021/07/16 02:40:56;;;;;;;21.50;5.70;;;16.50;91.50;;;;;;5111173;28;20059;-67
2021/07/16 02:43:22;;;;;;;17.93;5.53;;;16.50;91.50;;;;;;5109862;28;20058;-68
2021/07/16 02:45:49;;;;;;;21.20;4.80;;;16.50;91.50;;;;;;5111080;28;20047;-70
2021/07/16 02:48:15;;;;;;;23.03;6.00;;;16.50;91.50;;;;;;5110797;28;20087;-67
2021/07/16 02:50:42;;;;;;;21.97;5.37;;;16.50;91.50;;;;;;5110392;28;20431;-68
2021/07/16 02:53:10;;;;;;;25.53;5.77;;;16.50;91.50;;;;;;5110979;28;20353;-67
2021/07/16 02:55:37;;;;;;;22.70;5.33;;;16.50;91.50;;;;;;5111131;28;20059;-68
2021/07/16 02:58:03;;;;;;;25.37;5.87;;;16.50;91.50;;;;;;5110044;28;20468;-67
2021/07/16 03:00:30;;;;;;;20.27;5.63;;;16.50;91.50;;;;;;5110550;28;20070;-67
2021/07/16 03:02:57;;;;;;;20.07;5.40;;;16.50;91.50;;;;;;5110717;28;20059;-67
2021/07/16 03:05:28;;;;;;;20.57;5.90;;;16.50;91.50;;;;;;5109542;28;20043;-68
2021/07/16 03:07:59;;;;;;;25.90;5.72;;;16.50;91.50;;;;;;5113147;28;20054;-67
2021/07/16 03:10:26;;;;;;;24.77;5.47;;;16.50;91.50;;;;;;5114788;28;20051;-67
2021/07/16 03:12:54;;;;;;;23.37;5.70;;;16.50;91.40;;;;;;5113977;28;20058;-67
2021/07/16 03:15:22;;;;;;;25.97;5.37;;;16.50;91.50;;;;;;5114179;28;20127;-68
2021/07/16 03:17:48;;;;;;;22.17;5.30;;;16.50;91.50;;;;;;5114365;28;20051;-67
2021/07/16 03:20:26;;;;;;;25.00;5.50;;;16.50;91.50;;;;;;5113601;28;20082;-67
2021/07/16 03:22:53;;;;;;;23.27;6.50;;;16.50;91.50;;;;;;5114320;28;20051;-68
2021/07/16 03:25:20;;;;;;;21.70;5.20;;;16.50;91.60;;;;;;5113488;28;20055;-67
2021/07/16 03:27:47;;;;;;;24.57;5.53;;;16.50;91.60;;;;;;5114203;28;20475;-67
2021/07/16 03:30:15;;;;;;;26.57;5.97;;;16.50;91.60;;;;;;5114172;28;20047;-67
2021/07/16 03:32:41;;;;;;;21.33;5.00;;;16.60;91.60;;;;;;5113391;28;20047;-67
2021/07/16 03:35:09;;;;;;;23.50;6.00;;;16.50;91.60;;;;;;5113993;28;20048;-67
2021/07/16 03:37:36;;;;;;;20.77;5.50;;;16.50;91.60;;;;;;5113958;28;20484;-68
2021/07/16 03:40:03;;;;;;;18.97;5.10;;;16.50;91.70;;;;;;5113542;28;20460;-67
2021/07/16 03:42:28;;;;;;;25.03;5.93;;;16.50;91.70;;;;;;5113542;28;20059;-67
2021/07/16 03:44:54;;;;;;;21.40;5.67;;;16.50;91.80;;;;;;5113699;28;20464;-67
2021/07/16 03:47:20;;;;;;;25.43;6.37;;;16.50;91.80;;;;;;5113026;28;20476;-67
2021/07/16 03:49:46;;;;;;;19.53;5.13;;;16.50;91.80;;;;;;5113824;28;20464;-67
2021/07/16 03:52:12;;;;;;;25.57;5.50;;;16.50;91.80;;;;;;5113537;28;20055;-67
2021/07/16 03:54:38;;;;;;;23.43;5.73;;;16.50;91.80;;;;;;5113008;28;20065;-67
2021/07/16 03:57:05;;;;;;;28.33;5.83;;;16.60;91.90;;;;;;5113872;28;20464;-67
2021/07/16 03:59:31;;;;;;;23.53;5.30;;;16.60;91.80;;;;;;5113240;28;20131;-67
2021/07/16 04:01:57;;;;;;;24.97;5.97;;;16.60;91.80;;;;;;5112853;28;20135;-67
2021/07/16 04:04:23;;;;;;;20.10;5.10;;;16.50;91.80;;;;;;5113407;28;20133;-68
2021/07/16 04:06:53;;;;;;;24.80;6.13;;;16.60;91.90;;;;;;5113641;28;20485;-67
2021/07/16 04:09:27;;;;;;;26.58;5.55;;;16.60;91.90;;;;;;5112558;28;20048;-68
2021/07/16 04:12:09;;;;;;;26.70;5.70;;;16.60;91.90;;;;;;5113491;28;20054;-68
2021/07/16 04:14:41;;;;;;;23.67;5.60;;;16.60;91.90;;;;;;5112882;28;20054;-67
2021/07/16 04:17:10;;;;;;;24.60;4.87;;;16.60;92.00;;;;;;5113593;28;20127;-67
2021/07/16 04:19:36;;;;;;;22.87;5.43;;;16.60;91.90;;;;;;5111842;28;20079;-66
2021/07/16 04:22:03;;;;;;;26.60;5.37;;;16.60;91.90;;;;;;5112835;28;20120;-67
2021/07/16 04:24:28;;;;;;;25.30;4.93;;;16.60;92.00;;;;;;5112721;28;20055;-67
2021/07/16 04:26:54;;;;;;;20.70;5.03;;;16.60;92.00;;;;;;5113040;28;20433;-68
2021/07/16 04:29:20;;;;;;;20.93;5.60;;;16.60;92.00;;;;;;5112272;28;20122;-67
2021/07/16 04:31:45;;;;;;;30.80;6.23;;;16.60;91.90;;;;;;5113076;28;20524;-68
2021/07/16 04:34:11;;;;;;;26.20;5.87;;;16.60;92.00;;;;;;5112593;28;20047;-68
2021/07/16 04:36:37;;;;;;;27.00;5.80;;;16.60;91.90;;;;;;5112217;28;20051;-67
2021/07/16 04:39:04;;;;;;;24.10;6.77;;;16.60;92.00;;;;;;5112688;28;20111;-69
2021/07/16 04:41:29;;;;;;;25.63;5.70;;;16.60;92.00;;;;;;5113102;28;20135;-67
2021/07/16 04:43:56;;;;;;;30.90;7.37;;;16.60;92.00;;;;;;5112378;28;20264;-68
2021/07/16 04:46:23;;;;;;;22.33;5.43;;;16.60;92.00;;;;;;5112351;28;20448;-67
2021/07/16 04:48:55;;;;;;;27.57;6.10;;;16.60;92.00;;;;;;5112779;28;20054;-67
2021/07/16 04:51:28;;;;;;;28.53;6.23;;;16.60;92.00;;;;;;5111982;28;20052;-67
2021/07/16 04:53:55;;;;;;;24.83;6.20;;;16.60;92.00;;;;;;5112763;28;20385;-67
2021/07/16 04:56:22;;;;;;;22.93;6.37;;;16.60;92.00;;;;;;5111735;28;20043;-67
2021/07/16 04:58:48;;;;;;;32.50;6.53;;;16.60;92.00;;;;;;5112570;28;20043;-67
2021/07/16 05:01:17;;;;;;;29.63;7.00;;;16.60;92.10;;;;;;5112516;28;20051;-68
2021/07/16 05:03:43;;;;;;;25.90;6.27;;;16.60;92.10;;;;;;5112011;28;20449;-67
2021/07/16 05:06:11;;;;;;;28.07;6.97;;;16.60;92.10;;;;;;5111787;28;20492;-67
2021/07/16 05:08:38;;;;;;;27.93;6.10;;;16.60;92.10;;;;;;5112793;28;20075;-67
2021/07/16 05:11:04;;;;;;;31.87;6.40;;;16.60;92.00;;;;;;5111732;28;20051;-67
2021/07/16 05:13:32;;;;;;;27.20;5.87;;;16.60;92.10;;;;;;5111408;28;20096;-66
2021/07/16 05:15:59;;;;;;;34.70;8.63;;;16.60;92.10;;;;;;5102775;28;20082;-67
2021/07/16 05:18:25;;;;;;;27.83;7.37;;;16.60;92.10;;;;;;5103180;28;20043;-67
2021/07/16 05:20:51;;;;;;;32.00;6.17;;;16.60;92.10;;;;;;5108449;28;20040;-67
2021/07/16 05:23:16;;;;;;;28.87;6.23;;;16.70;92.10;;;;;;5107883;28;20074;-66
2021/07/16 05:25:45;;;;;;;30.30;6.70;;;16.70;92.00;;;;;;5107630;28;20100;-67
2021/07/16 05:28:11;;;;;;;25.23;7.10;;;16.70;92.00;;;;;;5105178;28;20411;-69
2021/07/16 05:30:37;;;;;;;34.30;6.77;;;16.70;91.90;;;;;;5107580;28;20040;-66
2021/07/16 05:33:03;;;;;;;27.73;6.27;;;16.80;92.00;;;;;;5107428;28;20433;-67
2021/07/16 05:35:29;;;;;;;30.07;6.70;;;16.80;92.00;;;;;;5107934;28;20052;-67
2021/07/16 05:37:54;;;;;;;32.30;6.50;;;16.80;92.00;;;;;;5108261;27;20044;-69
2021/07/16 05:40:20;;;;;;;28.70;6.10;;;16.90;92.00;;;;;;5104629;28;20044;-68
2021/07/16 05:42:46;;;;;;;29.73;7.00;;;16.90;92.00;;;;;;5107605;28;20146;-68
2021/07/16 05:45:11;;;;;;;29.30;6.40;;;16.90;92.00;;;;;;5107774;28;20044;-67
2021/07/16 05:47:37;;;;;;;25.90;5.80;;;16.90;91.90;;;;;;5104888;28;20043;-70
2021/07/16 05:50:03;;;;;;;24.50;6.60;;;16.90;91.90;;;;;;5107771;28;20420;-67
2021/07/16 05:52:32;;;;;;;28.80;7.47;;;16.90;91.90;;;;;;5105061;28;20047;-66
2021/07/16 05:54:58;;;;;;;31.07;6.43;;;16.90;91.80;;;;;;5107010;28;20051;-67
2021/07/16 05:57:24;;;;;;;32.50;6.83;;;16.90;91.90;;;;;;5107706;28;20127;-66
2021/07/16 05:59:49;;;;;;;23.47;5.80;;;16.90;91.90;;;;;;5107542;28;20123;-67
2021/07/16 06:02:15;;;;;;;26.97;6.03;;;16.90;91.90;;;;;;5107565;28;20205;-67
2021/07/16 06:04:41;;;;;;;26.67;6.67;;;16.90;91.90;;;;;;5107928;28;20063;-67
2021/07/16 06:07:07;;;;;;;33.40;7.30;;;16.90;91.80;;;;;;5107224;28;20039;-67
2021/07/16 06:09:32;;;;;;;28.70;6.70;;;16.90;91.90;;;;;;5107522;28;20368;-67
2021/07/16 06:12:02;;;;;;;23.30;6.57;;;16.90;91.70;;;;;;5107593;28;20422;-66
2021/07/16 06:14:30;;;;;;;23.17;5.90;;;16.90;91.80;;;;;;5106658;28;20545;-67
2021/07/16 06:16:56;;;;;;;29.83;7.20;;;16.90;91.90;;;;;;5107665;28;20078;-67
2021/07/16 06:19:22;;;;;;;28.90;5.97;;;17.00;91.90;;;;;;5106955;28;20124;-66
2021/07/16 06:21:48;;;;;;;27.90;6.40;;;17.00;91.90;;;;;;5106521;28;20135;-67
2021/07/16 06:24:14;;;;;;;26.30;6.23;;;17.00;91.90;;;;;;5107619;28;20539;-66
2021/07/16 06:26:42;;;;;;;25.50;5.73;;;17.00;91.90;;;;;;5104637;28;20456;-66
2021/07/16 06:29:08;;;;;;;25.77;5.90;;;17.10;91.90;;;;;;5106521;28;20036;-65
2021/07/16 06:31:34;;;;;;;32.57;7.60;;;17.00;91.80;;;;;;5105159;28;20050;-65
2021/07/16 06:34:01;;;;;;;28.07;6.60;;;17.00;91.80;;;;;;5107801;28;20134;-66
2021/07/16 06:36:28;;;;;;;26.43;6.43;;;17.00;92.30;;;;;;5106870;28;20493;-67
2021/07/16 06:38:54;;;;;;;28.30;6.43;;;17.10;91.90;;;;;;5107482;28;20044;-68
2021/07/16 06:41:19;;;;;;;27.67;6.37;;;17.10;91.90;;;;;;5107208;28;20047;-66
2021/07/16 06:43:46;;;;;;;36.83;7.53;;;17.10;91.80;;;;;;5110657;28;20379;-66
2021/07/16 06:46:16;;;;;;;21.93;6.70;;;17.10;91.80;;;;;;5110802;28;20040;-66
2021/07/16 06:48:43;;;;;;;29.93;6.80;;;17.10;91.80;;;;;;5111260;28;20510;-66
2021/07/16 06:51:10;;;;;;;28.53;6.30;;;17.20;91.80;;;;;;5109990;28;20053;-66
2021/07/16 06:53:39;;;;;;;27.30;6.40;;;17.20;91.80;;;;;;5111548;28;20377;-67
2021/07/16 06:56:05;;;;;;;27.80;6.63;;;17.20;91.80;;;;;;5110508;28;20047;-66
2021/07/16 06:58:31;;;;;;;31.03;6.40;;;17.20;91.80;;;;;;5110785;28;20071;-66
2021/07/16 07:00:57;;;;;;;32.73;6.83;;;17.20;91.80;;;;;;5111063;28;20127;-67
2021/07/16 07:03:25;;;;;;;33.90;7.20;;;17.20;91.70;;;;;;5110489;28;20052;-67
2021/07/16 07:05:52;;;;;;;33.40;7.07;;;17.20;91.70;;;;;;5110609;28;20468;-68
2021/07/16 07:08:18;;;;;;;34.07;6.20;;;17.20;91.70;;;;;;5110812;28;20047;-68
2021/07/16 07:10:44;;;;;;;34.10;5.90;;;17.20;91.70;;;;;;5110351;28;20056;-68
2021/07/16 07:13:10;;;;;;;28.83;5.70;;;17.20;91.80;;;;;;5110436;28;20852;-69
2021/07/16 07:15:36;;;;;;;29.83;6.23;;;17.20;91.70;;;;;;5110900;28;20055;-68
2021/07/16 07:18:05;;;;;;;26.10;6.00;;;17.20;91.70;;;;;;5110064;28;20051;-68
2021/07/16 07:20:33;;;;;;;25.07;5.80;;;17.20;91.80;;;;;;5110571;28;20123;-68
2021/07/16 07:23:03;;;;;;;30.30;5.43;;;17.20;91.80;;;;;;5110694;28;20051;-68
2021/07/16 07:25:31;;;;;;;33.83;7.03;;;17.30;91.90;;;;;;5109681;28;20053;-68
2021/07/16 07:27:57;;;;;;;33.67;7.30;;;17.30;91.90;;;;;;5110447;28;20118;-68
2021/07/16 07:30:24;;;;;;;23.37;5.83;;;17.30;91.90;;;;;;5110263;28;20051;-69
2021/07/16 07:32:50;;;;;;;32.87;6.17;;;17.30;91.90;;;;;;5110006;28;20120;-68
2021/07/16 07:35:16;;;;;;;27.53;6.47;;;17.30;91.80;;;;;;5109530;28;20147;-68
2021/07/16 07:37:42;;;;;;;34.77;6.40;;;17.30;91.80;;;;;;5108666;28;20072;-69
2021/07/16 07:40:12;;;;;;;27.57;6.10;;;17.40;91.80;;;;;;5107500;28;20050;-69
2021/07/16 07:42:38;;;;;;;28.97;5.57;;;17.40;91.70;;;;;;5108403;28;20077;-68
2021/07/16 07:45:06;;;;;;;30.30;6.97;;;17.40;91.60;;;;;;5108250;28;20059;-68
2021/07/16 07:47:34;;;;;;;31.50;7.23;;;17.40;91.60;;;;;;5108432;28;20052;-68
2021/07/16 07:50:03;;;;;;;25.13;5.97;;;17.40;91.70;;;;;;5108533;28;20044;-68
2021/07/16 07:52:28;;;;;;;27.57;6.10;;;17.50;91.70;;;;;;5109072;28;20047;-68
2021/07/16 07:54:54;;;;;;;30.27;5.67;;;17.50;91.60;;;;;;5109953;28;20150;-68
2021/07/16 07:57:20;;;;;;;24.13;6.33;;;17.50;91.60;;;;;;5109868;28;20130;-68
2021/07/16 07:59:46;;;;;;;32.37;6.67;;;17.60;91.60;;;;;;5109325;28;20127;-68
2021/07/16 08:02:12;;;;;;;31.30;6.70;;;17.60;91.40;;;;;;5110080;28;20059;-69
2021/07/16 08:04:38;;;;;;;28.40;6.43;;;17.70;91.40;;;;;;5110282;28;20043;-68
2021/07/16 08:07:05;;;;;;;28.03;7.20;;;17.70;91.30;;;;;;5109352;28;20111;-68
2021/07/16 08:09:31;;;;;;;27.53;6.37;;;17.80;91.20;;;;;;5109514;28;20128;-68
2021/07/16 08:11:58;;;;;;;31.80;6.67;;;17.80;91.10;;;;;;5109913;27;20566;-69
2021/07/16 08:14:27;;;;;;;29.20;6.53;;;17.90;91.00;;;;;;5108896;28;20097;-68
2021/07/16 08:16:53;;;;;;;32.40;7.30;;;17.90;90.70;;;;;;5110312;27;20879;-68
2021/07/16 08:19:18;;;;;;;25.83;6.87;;;17.90;90.60;;;;;;5109687;28;20063;-67
2021/07/16 08:21:49;;;;;;;27.47;6.30;;;17.90;90.70;;;;;;5109658;28;20058;-67
2021/07/16 08:24:15;;;;;;;32.08;6.28;;;17.90;90.70;;;;;;5109576;28;20044;-69
2021/07/16 08:26:43;;;;;;;30.40;6.17;;;17.90;90.80;;;;;;5109896;28;20472;-68
2021/07/16 08:29:09;;;;;;;28.10;7.17;;;17.90;90.80;;;;;;5108954;28;20048;-68
2021/07/16 08:31:35;;;;;;;30.83;6.50;;;17.90;90.60;;;;;;5109744;28;20116;-68
2021/07/16 08:34:02;;;;;;;31.50;7.57;;;17.90;90.50;;;;;;5109549;28;20035;-69
2021/07/16 08:36:28;;;;;;;30.17;6.53;;;18.00;90.40;;;;;;5108554;28;20138;-67
2021/07/16 08:38:53;;;;;;;26.80;6.87;;;18.00;90.30;;;;;;5109675;28;20138;-68
2021/07/16 08:41:19;;;;;;;34.80;8.23;;;18.00;90.20;;;;;;5109247;28;20773;-69
2021/07/16 08:43:45;;;;;;;25.87;6.17;;;18.00;90.10;;;;;;5108809;28;20085;-68
2021/07/16 08:46:11;;;;;;;27.47;6.87;;;18.00;90.00;;;;;;5107656;28;20047;-68
2021/07/16 08:48:38;;;;;;;30.70;7.40;;;18.00;90.00;;;;;;5108456;28;20191;-68
2021/07/16 08:51:04;;;;;;;29.67;6.40;;;18.00;90.00;;;;;;5109208;28;20246;-68
2021/07/16 08:53:31;;;;;;;25.67;7.00;;;18.00;90.00;;;;;;5108961;28;20226;-68
2021/07/16 08:56:03;;;;;;;22.30;7.03;;;18.00;90.00;;;;;;5108530;28;20067;-68
2021/07/16 08:58:29;;;;;;;27.53;6.80;;;18.00;90.00;;;;;;5109321;28;20443;-68
2021/07/16 09:00:55;;;;;;;30.07;6.93;;;18.00;90.00;;;;;;5109277;28;20238;-67
2021/07/16 09:03:21;;;;;;;28.87;7.33;;;18.10;90.00;;;;;;5108060;28;20040;-68
2021/07/16 09:05:47;;;;;;;27.13;6.97;;;18.10;89.70;;;;;;5108395;28;20077;-68
2021/07/16 09:08:19;;;;;;;24.67;6.63;;;18.10;90.00;;;;;;5108968;28;20531;-68
2021/07/16 09:10:53;;;;;;;28.57;7.13;;;18.10;90.10;;;;;;5108806;28;20499;-68
2021/07/16 09:13:19;;;;;;;26.30;7.10;;;18.10;90.10;;;;;;5108933;28;20047;-67
2021/07/16 09:16:00;;;;;;;26.20;6.90;;;18.20;90.10;;;;;;5109239;28;20048;-68
2021/07/16 09:18:28;;;;;;;28.97;6.77;;;18.20;90.10;;;;;;5107406;28;20162;-68
2021/07/16 09:21:03;;;;;;;26.73;6.50;;;18.20;90.00;;;;;;5108982;28;20053;-68
2021/07/16 09:23:46;;;;;;;30.03;7.63;;;18.20;90.00;;;;;;5108468;28;20537;-68
2021/07/16 09:26:15;;;;;;;34.23;7.77;;;18.20;89.80;;;;;;5108563;28;20063;-68
2021/07/16 09:28:46;;;;;;;28.37;7.13;;;18.20;89.60;;;;;;5108657;28;20492;-69
2021/07/16 09:31:23;;;;;;;34.67;6.95;;;18.20;89.50;;;;;;5107904;28;20077;-69
2021/07/16 09:33:51;;;;;;;26.87;5.87;;;18.20;89.80;;;;;;5108723;28;20403;-69
2021/07/16 09:36:27;;;;;;;27.77;6.23;;;18.20;89.60;;;;;;5108730;28;20134;-69
2021/07/16 09:38:55;;;;;;;30.10;7.17;;;18.30;89.20;;;;;;5107949;28;20055;-69
2021/07/16 09:41:21;;;;;;;27.93;7.60;;;18.30;89.40;;;;;;5108468;28;20078;-68
2021/07/16 09:43:57;;;;;;;29.13;6.50;;;18.30;89.40;;;;;;5108485;28;20707;-68
2021/07/16 09:46:22;;;;;;;25.20;6.50;;;18.40;89.30;;;;;;5107581;28;20044;-68
2021/07/16 09:48:48;;;;;;;25.33;6.53;;;18.40;89.10;;;;;;5108602;28;20049;-68
2021/07/16 09:51:27;;;;;;;30.50;7.17;;;18.40;89.00;;;;;;5108213;28;20050;-69
2021/07/16 09:54:03;;;;;;;26.80;7.47;;;18.40;88.60;;;;;;5107483;28;20175;-69
2021/07/16 09:56:34;;;;;;;25.63;6.97;;;18.40;89.10;;;;;;5107332;28;20082;-68
2021/07/16 09:59:06;;;;;;;26.83;7.30;;;18.40;88.80;;;;;;5107194;28;20055;-68
2021/07/16 10:01:37;;;;;;;29.27;6.27;;;18.40;88.90;;;;;;5107884;28;20472;-68
2021/07/16 10:04:16;;;;;;;30.23;6.80;;;18.40;89.00;;;;;;5107630;28;20055;-68
2021/07/16 10:06:43;;;;;;;25.47;7.67;;;18.40;89.30;;;;;;5106987;28;20062;-68
2021/07/16 10:09:09;;;;;;;24.43;6.30;;;18.40;89.60;;;;;;5107617;28;20201;-68
2021/07/16 10:11:37;;;;;;;28.10;7.20;;;18.50;89.10;;;;;;5107525;28;20079;-68
2021/07/16 10:14:03;;;;;;;28.57;7.33;;;18.50;89.00;;;;;;5107160;28;20473;-69
2021/07/16 10:16:30;;;;;;;32.23;9.07;;;18.50;89.00;;;;;;5109133;28;20060;-69
2021/07/16 10:18:59;;;;;;;29.67;6.77;;;18.50;88.90;;;;;;5111912;28;20537;-68
2021/07/16 10:21:25;;;;;;;29.97;6.97;;;18.50;88.90;;;;;;5111197;28;20067;-68
2021/07/16 10:23:52;;;;;;;29.50;8.37;;;18.50;88.90;;;;;;5111616;28;20062;-67
2021/07/16 10:26:21;;;;;;;32.90;7.17;;;18.40;88.90;;;;;;5111910;28;20431;-68
2021/07/16 10:28:47;;;;;;;31.37;7.97;;;18.50;89.00;;;;;;5111103;28;20047;-69
2021/07/16 10:31:28;;;;;;;26.07;7.20;;;18.50;88.90;;;;;;5111502;28;20470;-68
2021/07/16 10:33:58;;;;;;;33.47;7.78;;;18.60;88.50;;;;;;5111035;28;20078;-68
2021/07/16 10:36:44;;;;;;;30.00;8.30;;;18.60;88.90;;;;;;5111434;28;20054;-67
2021/07/16 10:39:20;;;;;;;29.00;7.13;;;18.70;87.90;;;;;;5111401;28;20051;-68
2021/07/16 10:41:46;;;;;;;22.10;7.30;;;18.80;88.30;;;;;;5110656;28;20129;-68
2021/07/16 10:44:13;;;;;;;33.93;9.83;;;18.80;88.20;;;;;;5111201;28;20067;-69
2021/07/16 10:46:44;;;;;;;34.37;7.73;;;18.90;87.90;;;;;;5111521;27;20055;-68
2021/07/16 10:49:12;;;;;;;25.10;8.00;;;18.90;87.80;;;;;;5110495;28;20054;-68
2021/07/16 10:51:40;;;;;;;23.53;7.03;;;19.10;87.80;;;;;;5111398;28;20484;-67
2021/07/16 10:54:11;;;;;;;32.30;7.73;;;19.10;87.10;;;;;;5110974;28;20039;-66
2021/07/16 10:56:39;;;;;;;30.02;7.25;;;19.10;86.60;;;;;;5110764;28;20142;-66
2021/07/16 10:59:06;;;;;;;32.83;7.83;;;19.10;86.60;;;;;;5110980;28;20067;-66
2021/07/16 11:01:34;;;;;;;22.57;7.33;;;19.10;86.60;;;;;;5110609;28;20086;-66
2021/07/16 11:04:05;;;;;;;30.17;6.93;;;19.10;86.80;;;;;;5110487;28;20044;-67
2021/07/16 11:06:54;;;;;;;22.77;7.60;;;19.10;86.30;;;;;;5111050;28;20048;-65
2021/07/16 11:09:33;;;;;;;25.07;6.70;;;19.20;86.40;;;;;;5109950;28;20297;-66
2021/07/16 11:12:23;;;;;;;28.77;7.27;;;19.20;86.20;;;;;;5110637;28;20059;-66
2021/07/16 11:14:49;;;;;;;32.50;8.80;;;19.20;86.70;;;;;;5111172;28;20050;-66
2021/07/16 11:17:53;;;;;;;26.90;7.97;;;19.40;87.00;;;;;;5110534;28;20460;-67
2021/07/16 11:20:20;;;;;;;30.50;8.13;;;19.40;85.00;;;;;;5101061;28;20083;-66
2021/07/16 11:23:00;;;;;;;25.43;7.77;;;19.40;85.70;;;;;;5112794;28;20145;-66
2021/07/16 11:25:28;;;;;;;32.00;8.38;;;19.30;85.40;;;;;;5113053;28;20047;-66
2021/07/16 11:27:54;;;;;;;34.27;7.97;;;19.30;85.80;;;;;;5113551;28;20064;-66
2021/07/16 11:30:20;;;;;;;30.37;7.53;;;19.30;86.00;;;;;;5113387;28;20139;-66
2021/07/16 11:32:45;;;;;;;28.93;7.43;;;19.40;86.30;;;;;;5114213;28;20134;-66
2021/07/16 11:35:13;;;;;;;29.77;8.13;;;19.40;86.20;;;;;;5112973;28;20047;-67
2021/07/16 11:37:49;;;;;;;26.03;7.23;;;19.40;85.60;;;;;;5112896;28;20047;-66
2021/07/16 11:40:24;;;;;;;30.87;8.90;;;19.50;85.00;;;;;;5112731;28;20112;-66
2021/07/16 11:42:55;;;;;;;30.70;8.33;;;19.40;85.10;;;;;;5111822;28;20058;-66
2021/07/16 11:45:31;;;;;;;25.27;7.50;;;19.30;85.60;;;;;;5110663;28;20065;-67
2021/07/16 11:48:00;;;;;;;24.20;8.37;;;19.30;85.30;;;;;;5111842;28;20136;-66
2021/07/16 11:50:26;;;;;;;21.53;7.83;;;19.30;85.50;;;;;;5111127;28;20052;-66
2021/07/16 11:52:55;;;;;;;24.70;7.63;;;19.30;85.30;;;;;;5111019;28;20052;-66
2021/07/16 11:55:27;;;;;;;30.40;9.13;;;19.20;85.60;;;;;;5111849;28;20054;-66
2021/07/16 11:57:56;;;;;;;29.93;8.70;;;19.30;85.60;;;;;;5113659;28;20054;-66
2021/07/16 12:00:30;;;;;;;33.50;9.03;;;19.30;85.90;;;;;;5112179;28;20047;-66
2021/07/16 12:03:13;;;;;;;27.67;9.73;;;19.30;85.80;;;;;;5113289;28;20487;-66
2021/07/16 12:05:51;;;;;;;31.43;8.40;;;19.30;85.50;;;;;;5112215;28;20661;-66
2021/07/16 12:08:18;;;;;;;28.37;8.57;;;19.30;85.40;;;;;;5113076;28;20046;-66
2021/07/16 12:10:43;;;;;;;32.77;9.00;;;19.40;85.20;;;;;;5113303;28;20043;-65
2021/07/16 12:13:09;;;;;;;24.53;7.77;;;19.40;85.30;;;;;;5112207;28;20135;-65
2021/07/16 12:15:34;;;;;;;25.73;8.93;;;19.50;84.70;;;;;;5113448;28;20048;-66
2021/07/16 12:18:02;;;;;;;30.27;9.20;;;19.40;84.60;;;;;;5113278;28;20097;-66
2021/07/16 12:20:28;;;;;;;25.37;8.57;;;19.50;85.10;;;;;;5111828;28;20052;-66
2021/07/16 12:22:54;;;;;;;28.27;9.67;;;19.50;84.80;;;;;;5112846;28;20482;-66
2021/07/16 12:25:20;;;;;;;31.30;9.83;;;19.50;85.00;;;;;;5112488;28;20051;-66
2021/07/16 12:28:08;;;;;;;33.20;8.37;;;19.50;85.10;;;;;;5112031;28;20481;-66
2021/07/16 12:30:35;;;;;;;23.40;8.60;;;19.60;84.40;;;;;;5113360;28;20092;-66
2021/07/16 12:33:05;;;;;;;26.23;8.77;;;19.60;85.60;;;;;;5112702;28;20476;-66
2021/07/16 12:35:31;;;;;;;26.03;8.20;;;19.60;84.50;;;;;;5111747;28;20142;-66
2021/07/16 12:38:02;;;;;;;27.67;8.20;;;19.70;84.70;;;;;;5112438;28;20158;-66
2021/07/16 12:40:29;;;;;;;22.23;8.35;;;19.80;84.00;;;;;;5111158;28;20399;-66